sensor_id;sensor_type;location;lat;lon;timestamp;P1;durP1;ratioP1;P2;durP2;ratioP2
76121;SDS011;64853;53.200;6.080;2023-03-01T00:04:22;1.13;;;0.77;;
76121;SDS011;64853;53.200;6.080;2023-03-01T00:09:14;1.27;;;0.90;;
76121;SDS011;64853;53.200;6.080;2023-03-01T00:14:06;1.02;;;0.88;;
76121;SDS011;64853;53.200;6.080;2023-03-01T00:19:00;1.25;;;0.80;;
76121;SDS011;64853;53.200;6.080;2023-03-01T00:23:53;0.85;;;0.65;;
76121;SDS011;64853;53.200;6.080;2023-03-01T00:28:45;0.82;;;0.80;;
76121;SDS011;64853;53.200;6.080;2023-03-01T00:33:37;0.98;;;0.70;;
76121;SDS011;64853;53.200;6.080;2023-03-01T00:38:33;1.13;;;1.02;;
76121;SDS011;64853;53.200;6.080;2023-03-01T00:43:26;0.70;;;0.70;;
76121;SDS011;64853;53.200;6.080;2023-03-01T00:53:10;1.20;;;0.70;;
76121;SDS011;64853;53.200;6.080;2023-03-01T00:58:03;0.60;;;0.60;;
76121;SDS011;64853;53.200;6.080;2023-03-01T01:02:55;1.30;;;0.95;;
76121;SDS011;64853;53.200;6.080;2023-03-01T01:07:47;1.00;;;0.90;;
76121;SDS011;64853;53.200;6.080;2023-03-01T01:12:39;0.80;;;0.80;;
76121;SDS011;64853;53.200;6.080;2023-03-01T01:22:25;1.30;;;0.70;;
76121;SDS011;64853;53.200;6.080;2023-03-01T01:32:09;0.85;;;0.73;;
76121;SDS011;64853;53.200;6.080;2023-03-01T01:41:57;1.13;;;0.70;;
76121;SDS011;64853;53.200;6.080;2023-03-01T01:51:44;0.60;;;0.57;;
76121;SDS011;64853;53.200;6.080;2023-03-01T01:56:40;0.70;;;0.70;;
76121;SDS011;64853;53.200;6.080;2023-03-01T02:01:34;0.90;;;0.75;;
76121;SDS011;64853;53.200;6.080;2023-03-01T02:06:27;0.90;;;0.75;;
76121;SDS011;64853;53.200;6.080;2023-03-01T02:11:22;0.80;;;0.63;;
76121;SDS011;64853;53.200;6.080;2023-03-01T02:16:17;0.68;;;0.60;;
76121;SDS011;64853;53.200;6.080;2023-03-01T02:21:13;0.70;;;0.65;;
76121;SDS011;64853;53.200;6.080;2023-03-01T02:26:16;0.60;;;0.52;;
76121;SDS011;64853;53.200;6.080;2023-03-01T02:31:14;0.55;;;0.55;;
76121;SDS011;64853;53.200;6.080;2023-03-01T02:36:28;0.75;;;0.70;;
76121;SDS011;64853;53.200;6.080;2023-03-01T02:41:22;0.50;;;0.50;;
76121;SDS011;64853;53.200;6.080;2023-03-01T02:46:18;0.70;;;0.70;;
76121;SDS011;64853;53.200;6.080;2023-03-01T02:51:19;0.98;;;0.57;;
76121;SDS011;64853;53.200;6.080;2023-03-01T02:56:18;0.70;;;0.70;;
76121;SDS011;64853;53.200;6.080;2023-03-01T03:01:10;0.90;;;0.70;;
76121;SDS011;64853;53.200;6.080;2023-03-01T03:06:05;0.65;;;0.57;;
76121;SDS011;64853;53.200;6.080;2023-03-01T03:10:57;0.70;;;0.50;;
76121;SDS011;64853;53.200;6.080;2023-03-01T03:15:49;0.75;;;0.50;;
76121;SDS011;64853;53.200;6.080;2023-03-01T03:25:34;0.63;;;0.50;;
76121;SDS011;64853;53.200;6.080;2023-03-01T03:30:28;0.70;;;0.50;;
76121;SDS011;64853;53.200;6.080;2023-03-01T03:35:22;1.25;;;0.70;;
76121;SDS011;64853;53.200;6.080;2023-03-01T03:40:16;0.50;;;0.50;;
76121;SDS011;64853;53.200;6.080;2023-03-01T03:45:10;0.70;;;0.70;;
76121;SDS011;64853;53.200;6.080;2023-03-01T03:50:02;0.60;;;0.60;;
76121;SDS011;64853;53.200;6.080;2023-03-01T03:54:54;0.80;;;0.70;;
76121;SDS011;64853;53.200;6.080;2023-03-01T03:59:46;0.98;;;0.60;;
76121;SDS011;64853;53.200;6.080;2023-03-01T04:09:31;0.65;;;0.57;;
76121;SDS011;64853;53.200;6.080;2023-03-01T04:14:24;0.40;;;0.40;;
76121;SDS011;64853;53.200;6.080;2023-03-01T04:19:16;0.77;;;0.50;;
76121;SDS011;64853;53.200;6.080;2023-03-01T04:24:09;0.63;;;0.60;;
76121;SDS011;64853;53.200;6.080;2023-03-01T04:29:02;0.55;;;0.50;;
76121;SDS011;64853;53.200;6.080;2023-03-01T04:33:55;0.60;;;0.60;;
76121;SDS011;64853;53.200;6.080;2023-03-01T04:38:47;0.60;;;0.50;;
76121;SDS011;64853;53.200;6.080;2023-03-01T04:43:41;0.85;;;0.45;;
76121;SDS011;64853;53.200;6.080;2023-03-01T04:48:34;0.68;;;0.50;;
76121;SDS011;64853;53.200;6.080;2023-03-01T04:53:26;0.60;;;0.55;;
76121;SDS011;64853;53.200;6.080;2023-03-01T04:58:18;0.60;;;0.40;;
76121;SDS011;64853;53.200;6.080;2023-03-01T05:03:11;0.68;;;0.68;;
76121;SDS011;64853;53.200;6.080;2023-03-01T05:08:08;0.50;;;0.50;;
76121;SDS011;64853;53.200;6.080;2023-03-01T05:13:07;0.85;;;0.63;;
76121;SDS011;64853;53.200;6.080;2023-03-01T05:17:59;0.70;;;0.63;;
76121;SDS011;64853;53.200;6.080;2023-03-01T05:22:54;0.50;;;0.50;;
76121;SDS011;64853;53.200;6.080;2023-03-01T05:27:48;0.57;;;0.50;;
76121;SDS011;64853;53.200;6.080;2023-03-01T05:32:41;0.90;;;0.68;;
76121;SDS011;64853;53.200;6.080;2023-03-01T05:37:34;0.55;;;0.40;;
76121;SDS011;64853;53.200;6.080;2023-03-01T05:42:28;0.98;;;0.50;;
76121;SDS011;64853;53.200;6.080;2023-03-01T05:47:20;0.60;;;0.50;;
76121;SDS011;64853;53.200;6.080;2023-03-01T05:57:04;0.65;;;0.45;;
76121;SDS011;64853;53.200;6.080;2023-03-01T06:06:48;0.70;;;0.38;;
76121;SDS011;64853;53.200;6.080;2023-03-01T06:11:40;1.00;;;0.63;;
76121;SDS011;64853;53.200;6.080;2023-03-01T06:16:32;1.00;;;0.50;;
76121;SDS011;64853;53.200;6.080;2023-03-01T06:21:25;0.55;;;0.55;;
76121;SDS011;64853;53.200;6.080;2023-03-01T06:26:17;0.80;;;0.60;;
76121;SDS011;64853;53.200;6.080;2023-03-01T06:31:09;0.52;;;0.43;;
76121;SDS011;64853;53.200;6.080;2023-03-01T06:36:01;0.65;;;0.50;;
76121;SDS011;64853;53.200;6.080;2023-03-01T06:40:55;0.60;;;0.50;;
76121;SDS011;64853;53.200;6.080;2023-03-01T06:45:47;0.65;;;0.50;;
76121;SDS011;64853;53.200;6.080;2023-03-01T06:50:39;0.70;;;0.70;;
76121;SDS011;64853;53.200;6.080;2023-03-01T07:00:25;0.75;;;0.47;;
76121;SDS011;64853;53.200;6.080;2023-03-01T07:05:18;0.90;;;0.70;;
76121;SDS011;64853;53.200;6.080;2023-03-01T07:10:10;0.80;;;0.50;;
76121;SDS011;64853;53.200;6.080;2023-03-01T07:15:03;1.48;;;0.57;;
76121;SDS011;64853;53.200;6.080;2023-03-01T07:19:57;1.77;;;0.93;;
76121;SDS011;64853;53.200;6.080;2023-03-01T07:24:49;0.77;;;0.65;;
76121;SDS011;64853;53.200;6.080;2023-03-01T07:29:41;0.80;;;0.70;;
76121;SDS011;64853;53.200;6.080;2023-03-01T07:34:32;0.90;;;0.60;;
76121;SDS011;64853;53.200;6.080;2023-03-01T07:39:26;1.40;;;0.63;;
76121;SDS011;64853;53.200;6.080;2023-03-01T07:44:18;0.82;;;0.65;;
76121;SDS011;64853;53.200;6.080;2023-03-01T07:49:10;1.05;;;0.50;;
76121;SDS011;64853;53.200;6.080;2023-03-01T07:54:02;1.52;;;0.82;;
76121;SDS011;64853;53.200;6.080;2023-03-01T07:58:55;0.98;;;0.60;;
76121;SDS011;64853;53.200;6.080;2023-03-01T08:03:47;1.00;;;0.70;;
76121;SDS011;64853;53.200;6.080;2023-03-01T08:08:39;0.70;;;0.70;;
76121;SDS011;64853;53.200;6.080;2023-03-01T08:13:32;0.88;;;0.88;;
76121;SDS011;64853;53.200;6.080;2023-03-01T08:18:26;0.57;;;0.43;;
76121;SDS011;64853;53.200;6.080;2023-03-01T08:23:17;0.77;;;0.50;;
76121;SDS011;64853;53.200;6.080;2023-03-01T08:28:09;1.45;;;0.75;;
76121;SDS011;64853;53.200;6.080;2023-03-01T08:33:01;0.80;;;0.50;;
76121;SDS011;64853;53.200;6.080;2023-03-01T08:37:55;0.80;;;0.60;;
76121;SDS011;64853;53.200;6.080;2023-03-01T08:42:47;0.50;;;0.50;;
76121;SDS011;64853;53.200;6.080;2023-03-01T08:47:39;1.67;;;0.57;;
76121;SDS011;64853;53.200;6.080;2023-03-01T08:52:31;0.82;;;0.68;;
76121;SDS011;64853;53.200;6.080;2023-03-01T08:57:26;0.93;;;0.70;;
76121;SDS011;64853;53.200;6.080;2023-03-01T09:02:18;1.70;;;0.95;;
76121;SDS011;64853;53.200;6.080;2023-03-01T09:07:10;0.82;;;0.60;;
76121;SDS011;64853;53.200;6.080;2023-03-01T09:12:02;0.88;;;0.75;;
76121;SDS011;64853;53.200;6.080;2023-03-01T09:16:56;0.80;;;0.70;;
76121;SDS011;64853;53.200;6.080;2023-03-01T09:21:48;0.68;;;0.52;;
76121;SDS011;64853;53.200;6.080;2023-03-01T09:26:43;2.03;;;0.80;;
76121;SDS011;64853;53.200;6.080;2023-03-01T09:31:36;1.88;;;0.80;;
76121;SDS011;64853;53.200;6.080;2023-03-01T09:36:30;1.35;;;0.90;;
76121;SDS011;64853;53.200;6.080;2023-03-01T09:41:26;0.80;;;0.63;;
76121;SDS011;64853;53.200;6.080;2023-03-01T09:46:29;1.35;;;1.00;;
76121;SDS011;64853;53.200;6.080;2023-03-01T09:51:27;1.40;;;0.90;;
76121;SDS011;64853;53.200;6.080;2023-03-01T09:56:28;1.65;;;1.10;;
76121;SDS011;64853;53.200;6.080;2023-03-01T10:01:26;1.70;;;1.00;;
76121;SDS011;64853;53.200;6.080;2023-03-01T10:06:25;1.45;;;0.85;;
76121;SDS011;64853;53.200;6.080;2023-03-01T10:11:20;0.93;;;0.77;;
76121;SDS011;64853;53.200;6.080;2023-03-01T10:16:14;0.88;;;0.55;;
76121;SDS011;64853;53.200;6.080;2023-03-01T10:21:13;1.40;;;0.88;;
76121;SDS011;64853;53.200;6.080;2023-03-01T10:26:09;0.60;;;0.60;;
76121;SDS011;64853;53.200;6.080;2023-03-01T10:31:37;1.25;;;0.80;;
76121;SDS011;64853;53.200;6.080;2023-03-01T10:36:33;1.08;;;0.73;;
76121;SDS011;64853;53.200;6.080;2023-03-01T10:41:26;2.75;;;1.33;;
76121;SDS011;64853;53.200;6.080;2023-03-01T10:46:25;1.40;;;1.00;;
76121;SDS011;64853;53.200;6.080;2023-03-01T10:51:21;1.92;;;0.85;;
76121;SDS011;64853;53.200;6.080;2023-03-01T10:56:14;1.10;;;0.80;;
76121;SDS011;64853;53.200;6.080;2023-03-01T11:01:24;1.73;;;0.70;;
76121;SDS011;64853;53.200;6.080;2023-03-01T11:06:22;2.95;;;1.02;;
76121;SDS011;64853;53.200;6.080;2023-03-01T11:11:16;3.03;;;0.80;;
76121;SDS011;64853;53.200;6.080;2023-03-01T11:16:11;0.85;;;0.40;;
76121;SDS011;64853;53.200;6.080;2023-03-01T11:21:03;0.70;;;0.70;;
76121;SDS011;64853;53.200;6.080;2023-03-01T11:26:01;0.85;;;0.50;;
76121;SDS011;64853;53.200;6.080;2023-03-01T11:30:58;0.90;;;0.70;;
76121;SDS011;64853;53.200;6.080;2023-03-01T11:35:55;1.08;;;0.80;;
76121;SDS011;64853;53.200;6.080;2023-03-01T11:40:54;1.42;;;0.65;;
76121;SDS011;64853;53.200;6.080;2023-03-01T11:46:07;2.17;;;1.45;;
76121;SDS011;64853;53.200;6.080;2023-03-01T11:51:31;1.02;;;0.90;;
76121;SDS011;64853;53.200;6.080;2023-03-01T11:56:34;2.90;;;1.02;;
76121;SDS011;64853;53.200;6.080;2023-03-01T12:01:39;6.40;;;0.98;;
76121;SDS011;64853;53.200;6.080;2023-03-01T12:06:45;2.47;;;0.90;;
76121;SDS011;64853;53.200;6.080;2023-03-01T12:11:49;1.45;;;1.00;;
76121;SDS011;64853;53.200;6.080;2023-03-01T12:17:06;1.23;;;0.75;;
76121;SDS011;64853;53.200;6.080;2023-03-01T12:22:17;2.72;;;0.50;;
76121;SDS011;64853;53.200;6.080;2023-03-01T12:27:27;0.52;;;0.52;;
76121;SDS011;64853;53.200;6.080;2023-03-01T12:32:38;1.27;;;0.80;;
76121;SDS011;64853;53.200;6.080;2023-03-01T12:37:41;0.73;;;0.60;;
76121;SDS011;64853;53.200;6.080;2023-03-01T12:47:48;3.20;;;1.05;;
76121;SDS011;64853;53.200;6.080;2023-03-01T12:52:50;2.53;;;1.60;;
76121;SDS011;64853;53.200;6.080;2023-03-01T12:57:46;2.78;;;1.77;;
76121;SDS011;64853;53.200;6.080;2023-03-01T13:02:45;2.85;;;1.33;;
76121;SDS011;64853;53.200;6.080;2023-03-01T13:07:44;1.50;;;1.40;;
76121;SDS011;64853;53.200;6.080;2023-03-01T13:12:45;3.22;;;1.48;;
76121;SDS011;64853;53.200;6.080;2023-03-01T13:17:41;1.73;;;1.40;;
76121;SDS011;64853;53.200;6.080;2023-03-01T13:22:38;2.47;;;1.13;;
76121;SDS011;64853;53.200;6.080;2023-03-01T13:27:30;2.50;;;1.10;;
76121;SDS011;64853;53.200;6.080;2023-03-01T13:32:22;1.13;;;0.90;;
76121;SDS011;64853;53.200;6.080;2023-03-01T13:37:19;1.05;;;0.73;;
76121;SDS011;64853;53.200;6.080;2023-03-01T13:42:34;1.15;;;0.63;;
76121;SDS011;64853;53.200;6.080;2023-03-01T13:47:35;0.82;;;0.70;;
76121;SDS011;64853;53.200;6.080;2023-03-01T13:52:34;0.60;;;0.50;;
76121;SDS011;64853;53.200;6.080;2023-03-01T13:57:30;1.70;;;0.80;;
76121;SDS011;64853;53.200;6.080;2023-03-01T14:02:29;0.80;;;0.50;;
76121;SDS011;64853;53.200;6.080;2023-03-01T14:07:22;0.85;;;0.63;;
76121;SDS011;64853;53.200;6.080;2023-03-01T14:12:21;0.40;;;0.40;;
76121;SDS011;64853;53.200;6.080;2023-03-01T14:17:28;3.35;;;0.77;;
76121;SDS011;64853;53.200;6.080;2023-03-01T14:22:36;1.33;;;0.70;;
76121;SDS011;64853;53.200;6.080;2023-03-01T14:27:30;0.52;;;0.52;;
76121;SDS011;64853;53.200;6.080;2023-03-01T14:32:28;0.70;;;0.50;;
76121;SDS011;64853;53.200;6.080;2023-03-01T14:37:22;1.60;;;0.70;;
76121;SDS011;64853;53.200;6.080;2023-03-01T14:42:16;1.02;;;0.52;;
76121;SDS011;64853;53.200;6.080;2023-03-01T14:47:10;0.63;;;0.60;;
76121;SDS011;64853;53.200;6.080;2023-03-01T14:52:07;2.15;;;0.60;;
76121;SDS011;64853;53.200;6.080;2023-03-01T14:57:12;0.85;;;0.60;;
76121;SDS011;64853;53.200;6.080;2023-03-01T15:02:08;1.92;;;0.40;;
76121;SDS011;64853;53.200;6.080;2023-03-01T15:07:10;1.40;;;0.90;;
76121;SDS011;64853;53.200;6.080;2023-03-01T15:17:28;0.40;;;0.40;;
76121;SDS011;64853;53.200;6.080;2023-03-01T15:22:25;1.67;;;0.90;;
76121;SDS011;64853;53.200;6.080;2023-03-01T15:27:19;0.60;;;0.30;;
76121;SDS011;64853;53.200;6.080;2023-03-01T15:32:23;0.50;;;0.50;;
76121;SDS011;64853;53.200;6.080;2023-03-01T15:42:36;0.73;;;0.50;;
76121;SDS011;64853;53.200;6.080;2023-03-01T15:47:29;0.95;;;0.38;;
76121;SDS011;64853;53.200;6.080;2023-03-01T15:52:24;0.70;;;0.50;;
76121;SDS011;64853;53.200;6.080;2023-03-01T15:57:21;1.30;;;0.40;;
76121;SDS011;64853;53.200;6.080;2023-03-01T16:02:13;1.02;;;0.50;;
76121;SDS011;64853;53.200;6.080;2023-03-01T16:07:05;3.00;;;0.80;;
76121;SDS011;64853;53.200;6.080;2023-03-01T16:11:58;0.50;;;0.30;;
76121;SDS011;64853;53.200;6.080;2023-03-01T16:16:51;0.47;;;0.47;;
76121;SDS011;64853;53.200;6.080;2023-03-01T16:21:43;0.60;;;0.43;;
76121;SDS011;64853;53.200;6.080;2023-03-01T16:26:36;0.50;;;0.50;;
76121;SDS011;64853;53.200;6.080;2023-03-01T16:31:28;0.77;;;0.40;;
76121;SDS011;64853;53.200;6.080;2023-03-01T16:36:22;0.50;;;0.40;;
76121;SDS011;64853;53.200;6.080;2023-03-01T16:41:15;0.68;;;0.32;;
76121;SDS011;64853;53.200;6.080;2023-03-01T16:46:10;1.10;;;0.77;;
76121;SDS011;64853;53.200;6.080;2023-03-01T16:51:02;0.65;;;0.63;;
76121;SDS011;64853;53.200;6.080;2023-03-01T16:55:55;0.98;;;0.40;;
76121;SDS011;64853;53.200;6.080;2023-03-01T17:00:48;0.30;;;0.30;;
76121;SDS011;64853;53.200;6.080;2023-03-01T17:05:40;0.70;;;0.30;;
76121;SDS011;64853;53.200;6.080;2023-03-01T17:10:32;0.30;;;0.30;;
76121;SDS011;64853;53.200;6.080;2023-03-01T17:15:25;0.57;;;0.40;;
76121;SDS011;64853;53.200;6.080;2023-03-01T17:20:18;1.35;;;0.40;;
76121;SDS011;64853;53.200;6.080;2023-03-01T17:25:10;0.65;;;0.30;;
76121;SDS011;64853;53.200;6.080;2023-03-01T17:30:02;0.40;;;0.40;;
76121;SDS011;64853;53.200;6.080;2023-03-01T17:34:56;0.60;;;0.30;;
76121;SDS011;64853;53.200;6.080;2023-03-01T17:39:47;0.30;;;0.30;;
76121;SDS011;64853;53.200;6.080;2023-03-01T17:44:39;0.85;;;0.40;;
76121;SDS011;64853;53.200;6.080;2023-03-01T17:49:31;1.63;;;0.55;;
76121;SDS011;64853;53.200;6.080;2023-03-01T17:54:24;0.20;;;0.20;;
76121;SDS011;64853;53.200;6.080;2023-03-01T17:59:16;0.95;;;0.32;;
76121;SDS011;64853;53.200;6.080;2023-03-01T18:04:08;0.82;;;0.55;;
76121;SDS011;64853;53.200;6.080;2023-03-01T18:09:00;0.30;;;0.30;;
76121;SDS011;64853;53.200;6.080;2023-03-01T18:13:54;0.50;;;0.30;;
76121;SDS011;64853;53.200;6.080;2023-03-01T18:18:46;0.50;;;0.28;;
76121;SDS011;64853;53.200;6.080;2023-03-01T18:23:38;1.15;;;0.30;;
76121;SDS011;64853;53.200;6.080;2023-03-01T18:28:31;0.30;;;0.30;;
76121;SDS011;64853;53.200;6.080;2023-03-01T18:33:25;0.98;;;0.25;;
76121;SDS011;64853;53.200;6.080;2023-03-01T18:38:17;0.90;;;0.20;;
76121;SDS011;64853;53.200;6.080;2023-03-01T18:43:09;0.73;;;0.47;;
76121;SDS011;64853;53.200;6.080;2023-03-01T18:48:00;1.27;;;0.32;;
76121;SDS011;64853;53.200;6.080;2023-03-01T18:52:54;2.67;;;0.40;;
76121;SDS011;64853;53.200;6.080;2023-03-01T18:57:46;0.50;;;0.30;;
76121;SDS011;64853;53.200;6.080;2023-03-01T19:02:37;0.25;;;0.25;;
76121;SDS011;64853;53.200;6.080;2023-03-01T19:12:22;0.90;;;0.30;;
76121;SDS011;64853;53.200;6.080;2023-03-01T19:17:14;0.88;;;0.47;;
76121;SDS011;64853;53.200;6.080;2023-03-01T19:22:06;0.75;;;0.10;;
76121;SDS011;64853;53.200;6.080;2023-03-01T19:26:57;0.70;;;0.30;;
76121;SDS011;64853;53.200;6.080;2023-03-01T19:31:51;0.52;;;0.22;;
76121;SDS011;64853;53.200;6.080;2023-03-01T19:36:43;1.25;;;0.63;;
76121;SDS011;64853;53.200;6.080;2023-03-01T19:41:37;3.13;;;0.55;;
76121;SDS011;64853;53.200;6.080;2023-03-01T19:46:30;0.40;;;0.32;;
76121;SDS011;64853;53.200;6.080;2023-03-01T19:51:23;1.42;;;0.30;;
76121;SDS011;64853;53.200;6.080;2023-03-01T19:56:15;1.13;;;0.35;;
76121;SDS011;64853;53.200;6.080;2023-03-01T20:01:12;0.30;;;0.20;;
76121;SDS011;64853;53.200;6.080;2023-03-01T20:06:07;2.25;;;0.40;;
76121;SDS011;64853;53.200;6.080;2023-03-01T20:11:02;0.95;;;0.40;;
76121;SDS011;64853;53.200;6.080;2023-03-01T20:15:55;1.27;;;0.40;;
76121;SDS011;64853;53.200;6.080;2023-03-01T20:20:47;0.77;;;0.40;;
76121;SDS011;64853;53.200;6.080;2023-03-01T20:25:39;0.60;;;0.32;;
76121;SDS011;64853;53.200;6.080;2023-03-01T20:30:32;1.95;;;0.60;;
76121;SDS011;64853;53.200;6.080;2023-03-01T20:35:24;0.88;;;0.50;;
76121;SDS011;64853;53.200;6.080;2023-03-01T20:40:16;1.15;;;0.50;;
76121;SDS011;64853;53.200;6.080;2023-03-01T20:45:10;2.42;;;0.50;;
76121;SDS011;64853;53.200;6.080;2023-03-01T20:50:03;0.90;;;0.50;;
76121;SDS011;64853;53.200;6.080;2023-03-01T20:54:56;0.77;;;0.50;;
76121;SDS011;64853;53.200;6.080;2023-03-01T20:59:47;0.70;;;0.43;;
76121;SDS011;64853;53.200;6.080;2023-03-01T21:09:32;0.60;;;0.38;;
76121;SDS011;64853;53.200;6.080;2023-03-01T21:14:24;1.08;;;0.40;;
76121;SDS011;64853;53.200;6.080;2023-03-01T21:19:15;1.20;;;0.60;;
76121;SDS011;64853;53.200;6.080;2023-03-01T21:24:07;0.63;;;0.50;;
76121;SDS011;64853;53.200;6.080;2023-03-01T21:29:02;0.65;;;0.30;;
76121;SDS011;64853;53.200;6.080;2023-03-01T21:33:54;0.60;;;0.50;;
76121;SDS011;64853;53.200;6.080;2023-03-01T21:38:48;0.38;;;0.38;;
76121;SDS011;64853;53.200;6.080;2023-03-01T21:43:41;1.40;;;0.35;;
76121;SDS011;64853;53.200;6.080;2023-03-01T21:48:36;0.75;;;0.60;;
76121;SDS011;64853;53.200;6.080;2023-03-01T21:53:29;0.80;;;0.45;;
76121;SDS011;64853;53.200;6.080;2023-03-01T21:58:22;0.50;;;0.40;;
76121;SDS011;64853;53.200;6.080;2023-03-01T22:03:14;0.75;;;0.40;;
76121;SDS011;64853;53.200;6.080;2023-03-01T22:08:08;0.50;;;0.40;;
76121;SDS011;64853;53.200;6.080;2023-03-01T22:13:00;0.52;;;0.45;;
76121;SDS011;64853;53.200;6.080;2023-03-01T22:22:43;0.68;;;0.47;;
76121;SDS011;64853;53.200;6.080;2023-03-01T22:32:28;0.73;;;0.45;;
76121;SDS011;64853;53.200;6.080;2023-03-01T22:37:20;0.50;;;0.40;;
76121;SDS011;64853;53.200;6.080;2023-03-01T22:42:12;0.40;;;0.30;;
76121;SDS011;64853;53.200;6.080;2023-03-01T22:47:06;0.88;;;0.57;;
76121;SDS011;64853;53.200;6.080;2023-03-01T22:51:58;0.70;;;0.50;;
76121;SDS011;64853;53.200;6.080;2023-03-01T22:56:50;0.43;;;0.43;;
76121;SDS011;64853;53.200;6.080;2023-03-01T23:01:42;0.77;;;0.30;;
76121;SDS011;64853;53.200;6.080;2023-03-01T23:06:37;0.40;;;0.40;;
76121;SDS011;64853;53.200;6.080;2023-03-01T23:11:39;0.35;;;0.35;;
76121;SDS011;64853;53.200;6.080;2023-03-01T23:21:22;0.98;;;0.40;;
76121;SDS011;64853;53.200;6.080;2023-03-01T23:26:16;0.43;;;0.40;;
76121;SDS011;64853;53.200;6.080;2023-03-01T23:31:12;0.73;;;0.40;;
76121;SDS011;64853;53.200;6.080;2023-03-01T23:36:05;0.50;;;0.50;;
76121;SDS011;64853;53.200;6.080;2023-03-01T23:41:07;0.73;;;0.43;;
76121;SDS011;64853;53.200;6.080;2023-03-01T23:46:01;0.50;;;0.40;;
76121;SDS011;64853;53.200;6.080;2023-03-01T23:50:52;0.55;;;0.50;;
76121;SDS011;64853;53.200;6.080;2023-03-01T23:55:45;0.50;;;0.50;;
